Accueil
METAR-TAF:

METAR-TAF

Aéroports :

Farmington Regional Airport

Farmington, Missouri, États-Unis

latitude: 37-46N, longitude: 090-26W, altitude: 288 m

Observation

Le bulletin a été fait il y a 39 minutes, à 14:56 UTC
Vent 9 kt de sud
Température 8°C
Humidité 93%
Pression 1014 hPa
Visibilité: 16.1 km
Ciel couvert à une hauteur de 600 ft

METAR: KFAM 171456Z AUTO 17009KT 10SM OVC006 08/07 A2995 RMK AO2 CIG 005V011 SLP155 T00780067 50001

Heure: 09:35 (15:35 UTC)


TAF: absent

Observations et prévisions météorologiques de plus de 4000 aéroports (messages METAR et TAF).

Les stations disponibles sont représentées par des disques jaunes et rouges sur la carte.

Passer la souris dessus pour voir le nom de la station.

Cliquer dessus pour voir les observations et prévisions météorologiques.

Pour changer de carte: cliquez sur les boutons verts avec une croix noire pour zoomer, sur le bouton vert avec un tiret pour effectuer un zoom arrière, ou sur les flèches vertes pour les cartes adjacentes.


METAR-TAF: